Time;durP1;ratioP1;P1;durP2;ratioP2;P2;SDS_P1;SDS_P2;PMS_P1;PMS_P2;Temp;Humidity;BMP_temperature;BMP_pressure;BME280_temperature;BME280_humidity;BME280_pressure;Samples;Min_cycle;Max_cycle;Signal;HPM_P1;HPM_P2
2022/09/20 00:02:02;;;;;;;6.97;2.22;;;;;;;;;;5072576;28;20456;-84
2022/09/20 00:04:29;;;;;;;6.75;2.20;;;;;;;;;;5059267;28;20045;-85
2022/09/20 00:06:57;;;;;;;4.32;2.08;;;;;;;;;;5078219;28;20441;-83
2022/09/20 00:09:25;;;;;;;3.20;1.65;;;;;;;;;;5058473;28;20051;-83
2022/09/20 00:11:57;;;;;;;6.50;1.92;;;;;;;;;;5077321;28;20048;-84
2022/09/20 00:14:25;;;;;;;6.05;2.08;;;;;;;;;;5075565;28;20037;-84
2022/09/20 00:16:53;;;;;;;3.92;1.88;;;;;;;;;;5078035;28;20094;-83
2022/09/20 00:19:21;;;;;;;4.80;2.00;;;;;;;;;;5077829;28;20051;-84
2022/09/20 00:21:49;;;;;;;5.93;2.22;;;;;;;;;;5056018;28;20519;-84
2022/09/20 00:24:18;;;;;;;6.55;1.75;;;;;;;;;;5074474;28;20036;-84
2022/09/20 00:26:51;;;;;;;8.88;2.10;;;;;;;;;;5060522;28;20621;-84
2022/09/20 00:29:19;;;;;;;8.80;1.90;;;;;;;;;;5073943;28;20056;-84
2022/09/20 00:31:47;;;;;;;6.78;2.20;;;;;;;;;;5075572;28;20028;-84
2022/09/20 00:37:55;;;;;;;5.03;1.90;;;;;;;;;;5076798;28;20037;-85
2022/09/20 00:40:25;;;;;;;4.22;1.80;;;;;;;;;;5074776;28;20033;-84
2022/09/20 00:43:17;;;;;;;6.53;2.00;;;;;;;;;;5059423;28;20059;-84
2022/09/20 00:45:51;;;;;;;5.10;1.98;;;;;;;;;;5075809;28;20054;-84
2022/09/20 00:48:29;;;;;;;7.35;1.92;;;;;;;;;;5076719;28;20047;-83
2022/09/20 00:51:05;;;;;;;6.93;2.05;;;;;;;;;;5076664;28;20405;-84
2022/09/20 00:53:44;;;;;;;6.18;1.77;;;;;;;;;;5074931;28;20441;-84
2022/09/20 00:56:40;;;;;;;6.57;2.40;;;;;;;;;;5077919;28;20044;-84
2022/09/20 00:59:21;;;;;;;6.20;2.05;;;;;;;;;;5072801;28;20072;-84
2022/09/20 01:01:55;;;;;;;3.83;1.77;;;;;;;;;;5074338;28;20040;-84
2022/09/20 01:04:26;;;;;;;7.88;1.95;;;;;;;;;;5056548;28;20040;-85
2022/09/20 01:06:56;;;;;;;5.63;1.70;;;;;;;;;;5074605;28;20048;-84
2022/09/20 01:10:13;;;;;;;6.28;1.80;;;;;;;;;;5065649;28;20033;-84
2022/09/20 01:13:07;;;;;;;4.55;1.90;;;;;;;;;;5075481;28;20032;-84
2022/09/20 01:15:48;;;;;;;5.53;1.77;;;;;;;;;;5075767;28;20082;-84
2022/09/20 01:18:15;;;;;;;9.35;2.42;;;;;;;;;;5077281;28;20036;-84
2022/09/20 01:21:08;;;;;;;5.97;2.28;;;;;;;;;;5074576;28;20028;-84
2022/09/20 01:24:24;;;;;;;5.05;2.03;;;;;;;;;;5054177;28;20036;-84
2022/09/20 01:27:17;;;;;;;5.88;2.00;;;;;;;;;;5073221;28;20111;-83
2022/09/20 01:30:01;;;;;;;7.20;1.67;;;;;;;;;;5060544;28;20036;-84
2022/09/20 01:32:42;;;;;;;7.55;2.22;;;;;;;;;;5075486;28;20058;-83
2022/09/20 01:35:18;;;;;;;3.70;1.65;;;;;;;;;;5054422;28;20507;-83
2022/09/20 01:38:43;;;;;;;5.18;2.00;;;;;;;;;;5056811;28;20065;-84
2022/09/20 01:41:34;;;;;;;4.57;1.70;;;;;;;;;;5006785;28;20081;-83
2022/09/20 01:44:12;;;;;;;6.03;2.00;;;;;;;;;;5007458;28;20042;-84
2022/09/20 01:46:41;;;;;;;5.65;2.28;;;;;;;;;;4991401;28;20070;-84
2022/09/20 01:49:36;;;;;;;8.43;2.17;;;;;;;;;;4999352;28;20056;-83
2022/09/20 01:53:00;;;;;;;8.98;2.50;;;;;;;;;;4990409;28;20113;-84
2022/09/20 01:56:00;;;;;;;6.25;1.98;;;;;;;;;;4964652;28;20047;-84
2022/09/20 01:58:50;;;;;;;7.72;2.53;;;;;;;;;;4965166;28;20055;-83
2022/09/20 02:01:51;;;;;;;6.45;1.90;;;;;;;;;;4963012;28;20070;-83
2022/09/20 02:04:33;;;;;;;6.60;2.40;;;;;;;;;;4965036;28;20062;-83
2022/09/20 02:07:35;;;;;;;8.30;2.72;;;;;;;;;;4964642;28;20117;-84
2022/09/20 02:10:24;;;;;;;5.35;2.40;;;;;;;;;;4965090;28;20042;-83
2022/09/20 02:13:02;;;;;;;10.40;2.50;;;;;;;;;;4963617;28;20054;-83
2022/09/20 02:15:53;;;;;;;6.53;2.40;;;;;;;;;;4971602;28;20469;-83
2022/09/20 02:18:46;;;;;;;6.53;2.75;;;;;;;;;;4996136;28;20137;-84
2022/09/20 02:21:40;;;;;;;4.22;2.40;;;;;;;;;;4974918;28;20054;-83
2022/09/20 02:24:22;;;;;;;6.95;2.42;;;;;;;;;;4996306;28;20105;-83
2022/09/20 02:27:17;;;;;;;3.97;2.13;;;;;;;;;;4996703;28;20050;-83
2022/09/20 02:30:13;;;;;;;7.57;2.45;;;;;;;;;;4994987;28;20081;-84
2022/09/20 02:33:15;;;;;;;5.15;2.67;;;;;;;;;;5035261;28;20080;-84
2022/09/20 02:35:45;;;;;;;8.23;2.55;;;;;;;;;;5073069;28;20047;-83
2022/09/20 02:38:43;;;;;;;6.72;3.03;;;;;;;;;;5072367;28;20040;-84
2022/09/20 02:41:29;;;;;;;8.13;2.75;;;;;;;;;;5073593;28;20058;-84
2022/09/20 02:44:09;;;;;;;9.65;2.50;;;;;;;;;;5071852;28;20094;-83
2022/09/20 02:46:41;;;;;;;4.70;2.10;;;;;;;;;;5075077;28;20044;-84
2022/09/20 02:49:32;;;;;;;5.95;2.58;;;;;;;;;;5055570;28;20048;-83
2022/09/20 02:52:14;;;;;;;6.05;2.40;;;;;;;;;;5057030;28;20033;-84
2022/09/20 02:55:19;;;;;;;6.55;2.58;;;;;;;;;;5073952;28;20072;-83
2022/09/20 02:58:14;;;;;;;3.90;2.15;;;;;;;;;;4973121;28;20042;-84
2022/09/20 03:01:16;;;;;;;8.27;3.05;;;;;;;;;;4955581;28;20046;-83
2022/09/20 03:04:06;;;;;;;6.78;2.47;;;;;;;;;;4975723;28;20051;-84
2022/09/20 03:06:42;;;;;;;7.30;2.83;;;;;;;;;;4975963;28;20115;-83
2022/09/20 03:09:37;;;;;;;5.25;2.60;;;;;;;;;;4962445;28;20054;-83
2022/09/20 03:12:23;;;;;;;5.97;2.80;;;;;;;;;;4974643;28;20570;-83
2022/09/20 03:15:23;;;;;;;7.63;2.70;;;;;;;;;;4974124;28;20054;-83
2022/09/20 03:18:09;;;;;;;7.93;2.83;;;;;;;;;;4974168;28;20045;-83
2022/09/20 03:21:23;;;;;;;8.30;2.88;;;;;;;;;;4970272;28;20043;-83
2022/09/20 03:24:08;;;;;;;5.38;2.88;;;;;;;;;;4975953;28;20130;-83
2022/09/20 03:27:18;;;;;;;7.93;3.20;;;;;;;;;;4976589;28;20061;-83
2022/09/20 03:30:17;;;;;;;7.32;2.97;;;;;;;;;;5057511;28;20071;-84
2022/09/20 03:33:23;;;;;;;9.18;3.45;;;;;;;;;;5059497;28;20130;-84
2022/09/20 03:35:58;;;;;;;8.38;2.85;;;;;;;;;;5045341;28;20044;-83
2022/09/20 03:38:43;;;;;;;5.43;2.50;;;;;;;;;;5056380;28;20119;-84
2022/09/20 03:41:27;;;;;;;5.82;3.17;;;;;;;;;;5074093;28;20051;-83
2022/09/20 03:43:54;;;;;;;5.53;2.70;;;;;;;;;;5070523;28;20056;-84
2022/09/20 03:46:26;;;;;;;5.65;2.72;;;;;;;;;;5071888;28;20036;-83
2022/09/20 03:49:20;;;;;;;7.65;2.70;;;;;;;;;;5057210;28;20067;-84
2022/09/20 03:52:22;;;;;;;8.63;2.90;;;;;;;;;;5054757;28;20111;-83
2022/09/20 03:55:09;;;;;;;5.18;2.33;;;;;;;;;;5068804;28;20036;-84
2022/09/20 03:57:54;;;;;;;5.85;2.70;;;;;;;;;;5074219;28;20045;-83
2022/09/20 04:00:49;;;;;;;7.10;2.75;;;;;;;;;;5056587;28;20056;-84
2022/09/20 04:03:45;;;;;;;5.47;3.10;;;;;;;;;;5070095;28;20045;-83
2022/09/20 04:06:38;;;;;;;6.55;3.00;;;;;;;;;;5070181;28;20056;-84
2022/09/20 04:09:37;;;;;;;6.05;2.83;;;;;;;;;;5073575;28;20043;-84
2022/09/20 04:12:15;;;;;;;5.25;2.58;;;;;;;;;;5073652;28;20380;-85
2022/09/20 04:15:22;;;;;;;9.65;2.40;;;;;;;;;;5068077;28;20488;-84
2022/09/20 04:18:34;;;;;;;9.43;3.17;;;;;;;;;;4990487;28;20109;-84
2022/09/20 04:21:04;;;;;;;4.15;2.38;;;;;;;;;;4960306;28;20046;-83
2022/09/20 04:24:20;;;;;;;6.07;2.40;;;;;;;;;;4991124;28;20136;-84
2022/09/20 04:27:18;;;;;;;5.95;2.28;;;;;;;;;;4992288;28;20034;-84
2022/09/20 04:30:00;;;;;;;5.53;2.15;;;;;;;;;;4989951;28;20446;-84
2022/09/20 04:32:57;;;;;;;5.05;2.45;;;;;;;;;;4993815;28;20153;-83
2022/09/20 04:38:39;;;;;;;10.85;3.05;;;;;;;;;;4977877;28;20050;-83
2022/09/20 04:41:48;;;;;;;5.85;2.50;;;;;;;;;;4992739;28;20101;-84
2022/09/20 04:44:29;;;;;;;5.47;2.38;;;;;;;;;;4992095;28;20082;-84
2022/09/20 04:47:18;;;;;;;4.65;2.10;;;;;;;;;;4980742;28;20038;-84
2022/09/20 04:50:24;;;;;;;6.85;2.58;;;;;;;;;;4997032;28;20053;-83
2022/09/20 04:56:01;;;;;;;9.82;2.10;;;;;;;;;;5071228;28;20060;-84
2022/09/20 04:58:48;;;;;;;7.35;2.22;;;;;;;;;;5055063;28;20519;-83
2022/09/20 05:01:56;;;;;;;7.23;2.37;;;;;;;;;;5070652;28;20033;-84
2022/09/20 05:05:08;;;;;;;8.55;2.30;;;;;;;;;;5070984;28;20036;-83
2022/09/20 05:08:00;;;;;;;7.13;2.33;;;;;;;;;;5036885;28;20511;-84
2022/09/20 05:10:37;;;;;;;4.65;2.30;;;;;;;;;;5005969;28;20062;-84
2022/09/20 05:13:32;;;;;;;9.40;2.80;;;;;;;;;;5003556;28;20129;-84
2022/09/20 05:16:19;;;;;;;8.05;2.55;;;;;;;;;;5006707;28;20111;-83
2022/09/20 05:19:12;;;;;;;4.57;2.03;;;;;;;;;;4990721;28;20038;-84
2022/09/20 05:22:42;;;;;;;6.03;3.08;;;;;;;;;;5006522;28;20050;-84
2022/09/20 05:25:29;;;;;;;5.68;3.20;;;;;;;;;;4987757;28;20097;-83
2022/09/20 05:28:29;;;;;;;7.88;2.92;;;;;;;;;;4981245;28;20507;-83
2022/09/20 05:31:25;;;;;;;5.18;2.88;;;;;;;;;;4985141;28;20043;-83
2022/09/20 05:34:38;;;;;;;7.22;3.50;;;;;;;;;;4985603;28;20074;-83
2022/09/20 05:37:55;;;;;;;5.13;2.85;;;;;;;;;;4986335;28;20042;-85
2022/09/20 05:40:52;;;;;;;5.22;2.78;;;;;;;;;;4985201;28;20049;-83
2022/09/20 05:43:32;;;;;;;4.65;2.30;;;;;;;;;;4967270;28;20077;-84
2022/09/20 05:46:45;;;;;;;5.28;2.70;;;;;;;;;;4986746;28;20050;-83
2022/09/20 05:49:35;;;;;;;6.38;2.88;;;;;;;;;;5006949;28;20220;-84
2022/09/20 05:52:20;;;;;;;5.03;2.50;;;;;;;;;;4991397;28;20498;-83
2022/09/20 05:55:23;;;;;;;4.47;2.33;;;;;;;;;;5006755;28;20049;-83
2022/09/20 05:58:03;;;;;;;5.03;2.80;;;;;;;;;;4990145;28;20429;-83
2022/09/20 06:01:13;;;;;;;5.07;2.42;;;;;;;;;;5046194;28;20055;-83
2022/09/20 06:03:47;;;;;;;5.97;2.70;;;;;;;;;;5027888;28;20041;-84
2022/09/20 06:07:02;;;;;;;6.43;2.50;;;;;;;;;;5061806;28;20036;-83
2022/09/20 06:09:55;;;;;;;4.50;2.55;;;;;;;;;;5065968;28;20047;-82
2022/09/20 06:12:49;;;;;;;6.10;2.95;;;;;;;;;;5063122;28;20418;-82
2022/09/20 06:15:47;;;;;;;5.72;2.85;;;;;;;;;;5068650;28;20131;-82
2022/09/20 06:18:28;;;;;;;5.50;2.70;;;;;;;;;;5052621;28;20090;-82
2022/09/20 06:21:26;;;;;;;6.43;2.20;;;;;;;;;;5062468;28;21025;-82
2022/09/20 06:23:59;;;;;;;4.10;2.10;;;;;;;;;;5064570;28;20098;-82
2022/09/20 06:26:53;;;;;;;4.93;2.58;;;;;;;;;;5051211;28;20106;-82
2022/09/20 06:29:35;;;;;;;8.90;2.40;;;;;;;;;;5068028;28;20492;-82
2022/09/20 06:32:09;;;;;;;6.95;2.38;;;;;;;;;;5060142;28;20504;-82
2022/09/20 06:34:39;;;;;;;7.47;2.65;;;;;;;;;;5060736;28;20097;-82
2022/09/20 06:43:30;;;;;;;5.65;2.20;;;;;;;;;;5058218;28;20511;-82
2022/09/20 06:45:57;;;;;;;6.57;2.65;;;;;;;;;;5044373;28;20044;-83
2022/09/20 06:48:25;;;;;;;5.38;2.58;;;;;;;;;;5057279;28;20090;-83
2022/09/20 06:51:24;;;;;;;11.63;2.65;;;;;;;;;;5047792;28;20082;-82
2022/09/20 06:54:19;;;;;;;11.40;2.60;;;;;;;;;;5051036;28;20036;-83
2022/09/20 06:56:54;;;;;;;10.40;2.78;;;;;;;;;;5066770;28;20430;-82
2022/09/20 06:59:21;;;;;;;8.48;2.80;;;;;;;;;;5063108;28;20075;-82
2022/09/20 07:01:49;;;;;;;7.30;2.67;;;;;;;;;;5066341;28;20029;-83
2022/09/20 07:04:17;;;;;;;8.65;2.97;;;;;;;;;;5049808;28;20508;-83
2022/09/20 07:06:50;;;;;;;9.07;3.00;;;;;;;;;;5048744;28;20040;-82
2022/09/20 07:09:17;;;;;;;8.43;2.67;;;;;;;;;;5050515;28;20056;-83
2022/09/20 07:11:49;;;;;;;6.50;3.15;;;;;;;;;;5050990;28;20491;-83
2022/09/20 07:14:18;;;;;;;13.25;2.40;;;;;;;;;;5065340;28;20044;-83
2022/09/20 07:16:52;;;;;;;6.70;2.67;;;;;;;;;;5047031;28;20033;-83
2022/09/20 07:19:19;;;;;;;7.63;2.72;;;;;;;;;;5066492;28;20048;-83
2022/09/20 07:21:47;;;;;;;8.80;2.83;;;;;;;;;;5050609;28;20060;-83
2022/09/20 07:24:46;;;;;;;9.60;2.80;;;;;;;;;;5067739;28;20054;-83
2022/09/20 07:27:15;;;;;;;8.60;2.80;;;;;;;;;;5065883;28;20086;-83
2022/09/20 07:29:48;;;;;;;8.15;3.25;;;;;;;;;;5066568;28;20123;-83
2022/09/20 07:32:19;;;;;;;8.60;3.17;;;;;;;;;;5065394;28;20120;-82
2022/09/20 07:34:49;;;;;;;11.30;2.72;;;;;;;;;;5043057;28;20047;-83
2022/09/20 07:37:24;;;;;;;10.98;2.92;;;;;;;;;;5066205;28;20048;-82
2022/09/20 07:39:51;;;;;;;12.45;3.25;;;;;;;;;;5066541;28;20045;-83
2022/09/20 07:42:19;;;;;;;18.25;3.00;;;;;;;;;;5065839;28;20041;-83
2022/09/20 07:44:48;;;;;;;10.65;2.80;;;;;;;;;;5049623;28;20097;-83
2022/09/20 07:47:25;;;;;;;12.00;2.50;;;;;;;;;;5047820;28;20040;-83
2022/09/20 07:49:57;;;;;;;13.63;2.47;;;;;;;;;;5061791;28;20043;-83
2022/09/20 07:52:25;;;;;;;15.82;3.58;;;;;;;;;;5047743;28;20047;-83
2022/09/20 07:54:57;;;;;;;9.75;3.15;;;;;;;;;;5045858;28;20036;-83
2022/09/20 07:57:25;;;;;;;10.45;2.67;;;;;;;;;;5065482;28;20037;-83
2022/09/20 07:59:53;;;;;;;6.93;2.35;;;;;;;;;;5049761;28;20046;-83
2022/09/20 08:02:25;;;;;;;8.13;2.20;;;;;;;;;;5065371;28;20102;-83
2022/09/20 08:04:53;;;;;;;8.32;2.25;;;;;;;;;;5066538;28;20048;-83
2022/09/20 08:07:21;;;;;;;8.20;1.65;;;;;;;;;;5045990;28;20124;-83
2022/09/20 08:09:53;;;;;;;11.48;1.80;;;;;;;;;;5064375;28;20408;-83
2022/09/20 08:12:45;;;;;;;6.28;1.40;;;;;;;;;;5052160;28;20025;-83
2022/09/20 08:15:38;;;;;;;10.57;2.13;;;;;;;;;;5064625;28;20040;-82
2022/09/20 08:18:33;;;;;;;16.17;1.80;;;;;;;;;;5067014;28;20040;-83
2022/09/20 08:21:32;;;;;;;7.45;1.88;;;;;;;;;;5071339;28;20036;-83
2022/09/20 08:24:02;;;;;;;7.70;1.60;;;;;;;;;;5068237;28;20036;-83
2022/09/20 08:26:35;;;;;;;8.52;1.63;;;;;;;;;;5053404;28;20143;-83
2022/09/20 08:29:07;;;;;;;8.15;1.60;;;;;;;;;;5069753;28;20098;-83
2022/09/20 08:32:00;;;;;;;10.02;1.40;;;;;;;;;;5069878;28;20028;-83
2022/09/20 08:35:17;;;;;;;6.18;1.20;;;;;;;;;;5060126;28;20043;-83
2022/09/20 08:38:09;;;;;;;7.80;1.30;;;;;;;;;;5069664;28;20052;-83
2022/09/20 08:41:11;;;;;;;6.15;1.33;;;;;;;;;;5068119;28;20029;-83
2022/09/20 08:43:47;;;;;;;6.28;1.10;;;;;;;;;;5046857;28;20113;-83
2022/09/20 08:46:24;;;;;;;10.65;1.98;;;;;;;;;;5036698;28;20047;-83
2022/09/20 08:48:54;;;;;;;7.55;1.17;;;;;;;;;;5071453;28;20040;-83
2022/09/20 08:51:49;;;;;;;10.35;1.38;;;;;;;;;;5071026;28;20036;-83
2022/09/20 08:54:17;;;;;;;5.80;0.73;;;;;;;;;;5071605;28;20063;-84
2022/09/20 08:56:45;;;;;;;13.05;1.50;;;;;;;;;;5068981;28;20036;-83
2022/09/20 08:59:16;;;;;;;5.93;1.60;;;;;;;;;;5068062;28;20401;-83
2022/09/20 09:01:43;;;;;;;6.40;1.17;;;;;;;;;;5068708;28;20118;-83
2022/09/20 09:04:15;;;;;;;8.95;1.77;;;;;;;;;;5072453;28;20040;-83
2022/09/20 09:06:45;;;;;;;9.68;1.70;;;;;;;;;;5070370;28;20046;-83
2022/09/20 09:09:27;;;;;;;7.22;1.52;;;;;;;;;;5048211;28;20055;-83
2022/09/20 09:11:57;;;;;;;7.35;1.30;;;;;;;;;;5053827;28;20033;-83
2022/09/20 09:14:53;;;;;;;8.65;1.52;;;;;;;;;;5070300;28;20029;-83
2022/09/20 09:17:45;;;;;;;15.15;1.50;;;;;;;;;;5068489;28;20036;-83
2022/09/20 09:20:22;;;;;;;4.43;0.95;;;;;;;;;;5052360;28;20048;-83
2022/09/20 09:25:55;;;;;;;8.27;2.03;;;;;;;;;;5069466;28;20113;-83
2022/09/20 09:28:25;;;;;;;8.40;1.10;;;;;;;;;;5070609;28;20050;-83
2022/09/20 09:31:21;;;;;;;7.65;1.33;;;;;;;;;;5052228;28;20044;-83
2022/09/20 09:33:49;;;;;;;7.68;1.40;;;;;;;;;;5069993;28;20037;-83
2022/09/20 09:36:23;;;;;;;7.25;1.02;;;;;;;;;;5054580;28;20143;-83
2022/09/20 09:39:29;;;;;;;9.20;1.20;;;;;;;;;;5049831;28;20418;-83
2022/09/20 09:41:59;;;;;;;6.45;1.30;;;;;;;;;;5070065;28;20037;-83
2022/09/20 09:45:10;;;;;;;10.43;1.30;;;;;;;;;;5068790;28;20070;-83
2022/09/20 09:47:37;;;;;;;6.20;0.93;;;;;;;;;;5069477;28;20074;-83
2022/09/20 09:50:05;;;;;;;10.68;1.60;;;;;;;;;;5065801;28;20029;-84
2022/09/20 09:53:14;;;;;;;9.38;1.25;;;;;;;;;;5069034;28;20089;-83
2022/09/20 09:55:53;;;;;;;3.13;0.82;;;;;;;;;;5053528;28;20037;-83
2022/09/20 09:58:31;;;;;;;7.68;1.58;;;;;;;;;;5070147;28;20048;-84
2022/09/20 10:01:01;;;;;;;8.13;1.52;;;;;;;;;;5066077;28;20412;-83
2022/09/20 10:04:13;;;;;;;10.25;1.38;;;;;;;;;;5070133;28;20028;-83
2022/09/20 10:07:03;;;;;;;6.95;1.17;;;;;;;;;;5046381;28;20120;-84
2022/09/20 10:09:40;;;;;;;8.52;1.00;;;;;;;;;;5050078;28;20488;-84
2022/09/20 10:12:48;;;;;;;8.40;1.15;;;;;;;;;;5051597;28;20049;-84
2022/09/20 10:15:26;;;;;;;4.90;1.05;;;;;;;;;;5047757;28;20041;-83
2022/09/20 10:18:13;;;;;;;6.35;0.73;;;;;;;;;;5068252;28;20044;-84
2022/09/20 10:21:06;;;;;;;7.57;0.90;;;;;;;;;;5066601;28;20101;-84
2022/09/20 10:23:50;;;;;;;5.25;1.15;;;;;;;;;;5050173;28;20488;-84
2022/09/20 10:26:46;;;;;;;6.57;0.95;;;;;;;;;;5067361;28;20037;-84
2022/09/20 10:29:52;;;;;;;7.65;1.02;;;;;;;;;;5066964;28;20067;-84
2022/09/20 10:33:19;;;;;;;6.25;1.05;;;;;;;;;;5049881;28;20032;-83
2022/09/20 10:36:00;;;;;;;5.75;0.80;;;;;;;;;;5003813;28;20042;-84
2022/09/20 10:38:37;;;;;;;3.50;0.85;;;;;;;;;;4988479;28;20044;-84
2022/09/20 10:44:52;;;;;;;5.45;1.25;;;;;;;;;;4989108;28;20129;-84
2022/09/20 10:48:07;;;;;;;9.07;1.13;;;;;;;;;;4984373;28;20045;-84
2022/09/20 10:50:52;;;;;;;6.10;1.23;;;;;;;;;;4989056;28;20526;-84
2022/09/20 10:53:55;;;;;;;7.00;0.88;;;;;;;;;;4988351;28;20047;-84
2022/09/20 10:56:25;;;;;;;11.60;1.27;;;;;;;;;;4986914;28;20120;-83
2022/09/20 10:59:16;;;;;;;10.35;1.10;;;;;;;;;;4987841;28;20050;-84
2022/09/20 11:01:45;;;;;;;5.28;1.10;;;;;;;;;;5000604;28;20047;-84
2022/09/20 11:04:46;;;;;;;8.05;1.15;;;;;;;;;;5002348;28;20084;-84
2022/09/20 11:08:05;;;;;;;4.95;0.88;;;;;;;;;;4988003;28;20046;-84
2022/09/20 11:10:53;;;;;;;4.18;0.80;;;;;;;;;;5063083;28;20052;-84
2022/09/20 11:13:41;;;;;;;9.35;1.20;;;;;;;;;;5064075;28;20039;-83
2022/09/20 11:16:17;;;;;;;6.07;1.30;;;;;;;;;;5065541;28;20045;-84
2022/09/20 11:18:58;;;;;;;9.85;1.15;;;;;;;;;;5032405;28;20064;-83
2022/09/20 11:21:53;;;;;;;7.75;1.27;;;;;;;;;;5063798;28;20098;-84
2022/09/20 11:25:39;;;;;;;3.60;0.77;;;;;;;;;;5066362;28;20435;-84
2022/09/20 11:28:30;;;;;;;5.70;1.10;;;;;;;;;;5065096;28;20119;-84
2022/09/20 11:31:06;;;;;;;4.00;0.70;;;;;;;;;;5054931;28;20055;-83
2022/09/20 11:33:47;;;;;;;3.83;0.77;;;;;;;;;;5046899;28;20115;-84
2022/09/20 11:36:21;;;;;;;5.15;0.80;;;;;;;;;;5062805;28;20048;-84
2022/09/20 11:39:54;;;;;;;6.18;1.30;;;;;;;;;;5049614;28;20040;-84
2022/09/20 11:42:48;;;;;;;5.40;1.00;;;;;;;;;;4985787;28;20050;-84
2022/09/20 11:45:15;;;;;;;4.05;0.80;;;;;;;;;;4965645;28;20046;-84
2022/09/20 11:47:55;;;;;;;5.50;1.20;;;;;;;;;;4969210;28;20501;-83
2022/09/20 11:50:50;;;;;;;4.20;1.02;;;;;;;;;;4989390;28;20084;-83
2022/09/20 11:53:44;;;;;;;6.25;1.20;;;;;;;;;;4988586;28;20050;-83
2022/09/20 11:56:23;;;;;;;3.78;1.10;;;;;;;;;;4989480;28;20050;-83
2022/09/20 11:58:57;;;;;;;4.72;1.30;;;;;;;;;;4990904;28;20060;-83
2022/09/20 12:01:31;;;;;;;5.50;1.55;;;;;;;;;;4986789;28;20054;-83
2022/09/20 12:04:22;;;;;;;6.53;1.17;;;;;;;;;;4973939;28;20059;-83
2022/09/20 12:07:15;;;;;;;5.13;1.17;;;;;;;;;;4990495;28;20125;-83
2022/09/20 12:10:23;;;;;;;5.05;1.27;;;;;;;;;;4992828;28;20556;-83
2022/09/20 12:12:58;;;;;;;7.90;1.50;;;;;;;;;;4984595;28;20051;-83
2022/09/20 12:15:38;;;;;;;5.53;1.40;;;;;;;;;;4988803;28;20085;-84
2022/09/20 12:18:27;;;;;;;4.75;0.77;;;;;;;;;;4990951;28;20038;-84
2022/09/20 12:20:54;;;;;;;7.60;1.00;;;;;;;;;;5068275;28;20508;-83
2022/09/20 12:23:41;;;;;;;4.90;0.70;;;;;;;;;;5068634;28;20048;-83
2022/09/20 12:26:19;;;;;;;2.92;0.73;;;;;;;;;;5065365;28;20044;-84
2022/09/20 12:29:23;;;;;;;7.63;1.08;;;;;;;;;;5026207;28;20036;-84
2022/09/20 12:32:56;;;;;;;7.20;0.95;;;;;;;;;;5062024;28;20140;-84
2022/09/20 12:35:34;;;;;;;4.13;0.75;;;;;;;;;;5063740;28;20104;-83
2022/09/20 12:38:19;;;;;;;4.38;0.98;;;;;;;;;;5062313;28;20140;-83
2022/09/20 12:41:07;;;;;;;4.18;0.75;;;;;;;;;;5068183;28;20139;-83
2022/09/20 12:43:45;;;;;;;5.90;1.40;;;;;;;;;;5066992;28;20111;-83
2022/09/20 12:46:32;;;;;;;7.00;1.02;;;;;;;;;;5051642;28;20052;-83
2022/09/20 12:52:49;;;;;;;7.18;1.48;;;;;;;;;;5033142;28;20052;-83
2022/09/20 12:52:54;;;;;;;6.07;0.85;;;;;;;;;;5070569;28;20158;-83
2022/09/20 12:55:53;;;;;;;4.80;0.70;;;;;;;;;;5054786;28;20127;-83
2022/09/20 12:58:50;;;;;;;3.35;0.90;;;;;;;;;;5036077;28;20576;-83
2022/09/20 13:01:44;;;;;;;7.57;1.40;;;;;;;;;;5070414;28;20055;-83
2022/09/20 13:04:38;;;;;;;3.90;0.90;;;;;;;;;;5068569;28;20503;-83
2022/09/20 13:07:35;;;;;;;6.75;0.70;;;;;;;;;;5066961;28;20193;-83
2022/09/20 13:10:29;;;;;;;5.32;1.20;;;;;;;;;;5048280;28;20067;-83
2022/09/20 13:13:02;;;;;;;7.57;1.10;;;;;;;;;;5050523;28;20048;-83
2022/09/20 13:15:55;;;;;;;5.78;1.10;;;;;;;;;;5070043;28;20040;-83
2022/09/20 13:18:25;;;;;;;3.08;0.80;;;;;;;;;;5071577;28;20052;-83
2022/09/20 13:20:55;;;;;;;3.67;0.68;;;;;;;;;;5066660;28;20052;-84
2022/09/20 13:23:54;;;;;;;5.78;0.70;;;;;;;;;;5066420;28;20099;-84
2022/09/20 13:26:27;;;;;;;5.03;0.75;;;;;;;;;;5059090;28;20082;-84
2022/09/20 13:29:21;;;;;;;5.03;0.93;;;;;;;;;;5040828;28;20040;-84
2022/09/20 13:31:49;;;;;;;4.93;0.70;;;;;;;;;;5043796;28;20041;-83
2022/09/20 13:34:23;;;;;;;2.85;0.63;;;;;;;;;;5049690;28;20067;-84
2022/09/20 13:36:59;;;;;;;3.80;0.82;;;;;;;;;;5063415;28;20450;-84
2022/09/20 13:39:37;;;;;;;3.08;0.73;;;;;;;;;;5048689;28;20057;-83
2022/09/20 13:42:18;;;;;;;2.83;0.57;;;;;;;;;;5048241;28;20044;-83
2022/09/20 13:44:47;;;;;;;5.72;0.60;;;;;;;;;;5047950;28;20115;-84
2022/09/20 13:47:42;;;;;;;4.93;1.00;;;;;;;;;;5047220;28;20021;-83
2022/09/20 13:50:29;;;;;;;3.83;0.60;;;;;;;;;;5068230;28;20508;-84
2022/09/20 13:53:00;;;;;;;2.97;0.73;;;;;;;;;;5064388;28;20047;-84
2022/09/20 13:55:36;;;;;;;4.50;0.70;;;;;;;;;;5063595;28;20446;-84
2022/09/20 13:58:16;;;;;;;2.38;0.60;;;;;;;;;;5065652;28;20048;-84
2022/09/20 14:00:48;;;;;;;3.35;0.60;;;;;;;;;;5067352;28;20617;-84
2022/09/20 14:03:22;;;;;;;4.45;1.00;;;;;;;;;;5065929;28;20064;-84
2022/09/20 14:06:25;;;;;;;6.30;0.82;;;;;;;;;;5050273;28;20048;-84
2022/09/20 14:09:33;;;;;;;7.20;0.70;;;;;;;;;;5048835;28;20048;-84
2022/09/20 14:12:04;;;;;;;3.42;0.63;;;;;;;;;;5064542;28;20056;-83
2022/09/20 14:14:37;;;;;;;6.40;0.88;;;;;;;;;;5060635;28;20118;-84
2022/09/20 14:17:08;;;;;;;8.07;0.80;;;;;;;;;;5065443;28;20123;-84
2022/09/20 14:19:42;;;;;;;5.28;0.77;;;;;;;;;;5063106;28;20043;-84
2022/09/20 14:22:19;;;;;;;3.00;0.95;;;;;;;;;;5062429;28;20029;-84
2022/09/20 14:25:11;;;;;;;3.25;0.70;;;;;;;;;;5063132;28;20040;-85
2022/09/20 14:27:39;;;;;;;2.40;0.50;;;;;;;;;;5061350;28;20051;-84
2022/09/20 14:30:28;;;;;;;4.35;0.75;;;;;;;;;;5062055;28;20503;-84
2022/09/20 14:32:57;;;;;;;4.75;1.20;;;;;;;;;;5064433;28;20389;-84
2022/09/20 14:35:26;;;;;;;4.30;0.73;;;;;;;;;;5063729;28;20067;-84
2022/09/20 14:38:01;;;;;;;3.42;0.70;;;;;;;;;;5063944;28;20118;-84
2022/09/20 14:40:39;;;;;;;5.43;0.90;;;;;;;;;;5063971;28;20040;-84
2022/09/20 14:43:23;;;;;;;3.05;0.75;;;;;;;;;;5060381;28;20409;-83
2022/09/20 14:45:57;;;;;;;4.10;0.60;;;;;;;;;;5067072;28;20043;-84
2022/09/20 14:48:37;;;;;;;2.80;0.60;;;;;;;;;;5064753;28;20055;-84
2022/09/20 14:51:17;;;;;;;4.43;0.82;;;;;;;;;;5067361;28;20567;-84
2022/09/20 14:54:06;;;;;;;2.28;0.73;;;;;;;;;;5046261;28;20128;-84
2022/09/20 14:56:46;;;;;;;2.92;0.70;;;;;;;;;;5033885;28;20055;-84
2022/09/20 14:59:18;;;;;;;2.38;0.57;;;;;;;;;;5047847;28;20447;-84
2022/09/20 15:01:55;;;;;;;2.60;0.50;;;;;;;;;;5033045;28;20042;-84
2022/09/20 15:04:24;;;;;;;4.80;0.38;;;;;;;;;;5064797;28;20051;-85
2022/09/20 15:06:54;;;;;;;5.70;0.90;;;;;;;;;;5064809;28;20037;-85
2022/09/20 15:09:27;;;;;;;4.38;0.60;;;;;;;;;;5050755;28;20036;-85
2022/09/20 15:12:20;;;;;;;2.97;1.00;;;;;;;;;;5065292;28;20040;-85
2022/09/20 15:14:49;;;;;;;3.30;0.70;;;;;;;;;;5061429;28;20488;-85
2022/09/20 15:17:19;;;;;;;4.20;0.98;;;;;;;;;;5064396;28;20123;-85
2022/09/20 15:19:48;;;;;;;8.90;0.80;;;;;;;;;;5047062;28;20396;-85
2022/09/20 15:22:17;;;;;;;5.35;0.95;;;;;;;;;;5064926;28;20051;-85
2022/09/20 15:24:45;;;;;;;6.90;0.95;;;;;;;;;;5045128;28;20032;-85
2022/09/20 15:27:13;;;;;;;5.22;0.70;;;;;;;;;;5062573;28;20131;-85
2022/09/20 15:29:41;;;;;;;3.03;1.05;;;;;;;;;;5048654;28;20043;-85
2022/09/20 15:32:09;;;;;;;2.50;0.63;;;;;;;;;;5066443;28;20500;-85
2022/09/20 15:35:01;;;;;;;8.45;0.98;;;;;;;;;;5068083;28;20021;-85
2022/09/20 15:37:33;;;;;;;3.38;0.63;;;;;;;;;;5050389;28;20527;-85
2022/09/20 15:40:01;;;;;;;3.60;0.50;;;;;;;;;;5067063;28;20128;-85
2022/09/20 15:42:29;;;;;;;5.22;1.00;;;;;;;;;;5050193;28;20048;-85
2022/09/20 15:45:01;;;;;;;4.97;0.70;;;;;;;;;;5066186;28;20041;-85
2022/09/20 15:47:29;;;;;;;4.18;0.77;;;;;;;;;;5046639;28;20135;-85
2022/09/20 15:49:58;;;;;;;2.28;0.57;;;;;;;;;;5067607;28;20040;-85
2022/09/20 15:52:41;;;;;;;2.38;0.60;;;;;;;;;;5050135;28;20036;-87
2022/09/20 15:55:48;;;;;;;3.28;0.90;;;;;;;;;;5049700;28;20559;-86
2022/09/20 15:58:19;;;;;;;1.67;0.60;;;;;;;;;;5072703;28;20105;-85
2022/09/20 16:00:48;;;;;;;2.15;0.60;;;;;;;;;;5066261;28;20484;-85
2022/09/20 16:03:29;;;;;;;3.47;1.02;;;;;;;;;;5048229;28;20485;-85
2022/09/20 16:06:01;;;;;;;2.97;1.08;;;;;;;;;;5066147;28;20098;-85
2022/09/20 16:08:36;;;;;;;4.38;1.05;;;;;;;;;;5067067;28;20037;-86
2022/09/20 16:11:04;;;;;;;2.70;1.10;;;;;;;;;;5065492;28;20048;-85
2022/09/20 16:13:37;;;;;;;5.22;1.15;;;;;;;;;;5050842;28;20047;-85
2022/09/20 16:16:14;;;;;;;5.30;1.88;;;;;;;;;;5065755;28;20044;-85
2022/09/20 16:21:41;;;;;;;4.20;1.25;;;;;;;;;;5050001;28;20037;-86
2022/09/20 16:24:16;;;;;;;4.90;1.27;;;;;;;;;;5034210;28;20380;-85
2022/09/20 16:27:20;;;;;;;4.35;0.90;;;;;;;;;;5064785;28;20071;-85
2022/09/20 16:29:54;;;;;;;3.63;1.10;;;;;;;;;;5064817;28;20042;-85
2022/09/20 16:32:47;;;;;;;8.38;1.27;;;;;;;;;;5062906;28;20051;-85
2022/09/20 16:35:25;;;;;;;2.72;1.00;;;;;;;;;;5045368;28;20024;-85
2022/09/20 16:37:53;;;;;;;5.07;1.20;;;;;;;;;;5065197;28;20036;-85
2022/09/20 16:40:23;;;;;;;3.15;1.08;;;;;;;;;;5066279;28;20153;-86
2022/09/20 16:42:55;;;;;;;4.00;1.02;;;;;;;;;;5069050;28;20555;-85
2022/09/20 16:45:23;;;;;;;3.00;1.15;;;;;;;;;;5052915;28;20044;-85
2022/09/20 16:47:56;;;;;;;4.07;1.58;;;;;;;;;;5068332;28;20041;-85
2022/09/20 16:50:35;;;;;;;6.53;1.70;;;;;;;;;;5069174;28;20148;-85